Terminal Aerodrome Forecast
Issued by NWS

Home | Current Version | Previous Version | Text Only | Print | Product List | Glossary On
Versions: 1 2 3 4 5 6 7 8 9 10 11 12
000
FTUS42 TJSJ 301745
TAFKPK
TAF
TKPK 301745Z 3018/3118 05012KT P6SM VCSH SCT018 SCT040
     FM302300 04010KT P6SM VCSH SCT018 SCT020
     FM311300 07013KT P6SM SCT022 SCT060=

USA.gov is the U.S. government's official web portal to all federal, state and local government web resources and services.